Aérodrome :
LOGIN :

S'inscrire | Disclaimer

   EN    FR    IT 

 










Légende :    VFR   VFR Marginal   IFR   IFR Intensif   IFR Très Intensif
Visi : 
Plafond : 
>= 8 km
>= 3000ft
5 à 8 km
1000 à 3000 ft
1500m à 5 km
500 à 1000 ft
800 à 1500m
200 à 500 ft
< 800m
< 200 ft
Symboles :   Orages  Brouillard  Fortes neiges  Fortes précipitations  Vent > 20 kt
SIGMETs :   Divers  Orages  Givrage  Turbulence  Onde Orograph.  Cendres Volcan.






- Altitude de l'aérodrome : 291 ft
- Code IATA : ORY


LFPO - Paris-Orly

DERNIER METAR :
  • 241100Z AUTO 21012KT 170V230 9999 BKN016 06/03 Q1001

METARs EXPIRÉS :
  • 241030Z AUTO 20012KT 180V240 9999 BKN014 06/02 Q1001
  • 241000Z AUTO 22012KT 9999 OVC013 05/02 Q1001
  • 240930Z AUTO 22012KT 9999 OVC012 04/02 Q1001
  • 240900Z AUTO 22011KT 180V250 9999 OVC012 04/02 Q1000
  • 240830Z AUTO 22011KT 9999 OVC012 04/02 Q1000
  • 240800Z AUTO 21008KT 9999 OVC012 04/02 Q1000
  • 240730Z AUTO 22009KT 190V250 9999 OVC012 04/02 Q0999
  • 240700Z AUTO 22010KT 9999 BKN012 04/02 Q0999
  • 240630Z AUTO 22011KT 190V250 9999 BKN011 OVC017 04/02 Q0999

TAF TAF LFPO
Valide du 24 à 06h jusqu'au 25 à 12h UTC


240500Z 2406/2512 21010KT 9999 BKN020
TEMPO 2406/2411 BKN012
PROB40
TEMPO 2406/2409 BKN009
TEMPO 2417/2419 22015G25KT 4000 SHRA BKN014 SCT015CB
PROB40
TEMPO 2417/2419 24020G35KT 2000 TSRAGR BKN014CB
TEMPO 2419/2422 BKN012
BECMG 2422/2501 BKN008
BECMG 2509/2512 -RA BKN014
ATIS : +33 1 49 75 65 80



MET'MAP, la Météo Aéronautique d'un coup d'oeil ! - Copyright ORBIFLY Décembre 2007 - Disclaimer

ORBIFLY MET'MAP TEAM :

Programmation & Développement : Alexandra Zaïnal
Sur une idée originale de : Baudouin d'Aumeries
Soutien technique & logistique : Manuel Goepfert
Assistance : Marc-Olivier Méhu




SOURCES & CREDITS :

   NOAA